Bewelcome, Mississippi
Current Conditions -  °F | °C
As of 7:08 PM on Saturday 20 Dec 2014 (Local Time) from KMCB Reporting Station
Few Clouds Few Clouds  
Wind Chill: 49°   Ceiling: Unl
Heat Index: 49°   Visibility: 10mi
Dew Point: 44°   Wind: 3mph
Humidity: 83%   Direction: NA
Pressure: 30.16"   Gusts: NA
Location:  31.1819°N, 90.9008°W
Report Text: KMCB 210108Z AUTO VRB03KT 10SM FEW017 09/07 A3016 RMK AO2 T00940067
Loading
Personal Weather Stations






























Interactive Weather Map New forecast layout! Learn more

10-Day Weather Forecast

Advertisements
Track Severe Weather on mobile